Time;durP1;ratioP1;P1;durP2;ratioP2;P2;SDS_P1;SDS_P2;PMS_P1;PMS_P2;Temp;Humidity;BMP_temperature;BMP_pressure;BME280_temperature;BME280_humidity;BME280_pressure;Samples;Min_cycle;Max_cycle;Signal;HPM_P1;HPM_P2
2021/01/01 00:00:49;;;;;;;244.23;89.73;;;;;;;-2.80;72.20;98126.61;122046;1144;65190;-92
2021/01/01 00:03:16;;;;;;;201.83;76.53;;;;;;;-2.81;71.76;98133.59;122070;1144;63830;-91
2021/01/01 00:05:43;;;;;;;324.67;123.93;;;;;;;-2.86;72.16;98121.58;122176;1143;65099;-90
2021/01/01 00:08:10;;;;;;;184.47;68.07;;;;;;;-2.88;71.84;98133.85;122090;1144;65024;-91
2021/01/01 00:10:37;;;;;;;212.43;77.63;;;;;;;-2.91;72.25;98128.74;122089;1144;65031;-91
2021/01/01 00:13:03;;;;;;;227.77;84.10;;;;;;;-2.92;72.71;98133.12;122117;1144;65165;-91
2021/01/01 00:15:30;;;;;;;167.90;63.40;;;;;;;-2.93;72.61;98133.99;122160;1144;64202;-91
2021/01/01 00:17:56;;;;;;;150.57;59.90;;;;;;;-2.94;72.57;98134.91;122009;1143;65126;-91
2021/01/01 00:20:23;;;;;;;174.27;67.33;;;;;;;-2.95;72.69;98135.81;122181;1144;65005;-91
2021/01/01 00:22:49;;;;;;;172.17;67.60;;;;;;;-2.98;71.88;98141.16;122093;1144;65249;-90
2021/01/01 00:25:15;;;;;;;157.40;64.43;;;;;;;-3.00;71.93;98140.33;122234;1144;63700;-91
2021/01/01 00:27:42;;;;;;;165.73;62.87;;;;;;;-2.99;72.81;98136.80;122146;1144;65128;-91
2021/01/01 00:30:11;;;;;;;160.55;65.00;;;;;;;-3.01;72.37;98141.23;122219;1144;65149;-91
2021/01/01 00:32:42;;;;;;;167.50;66.47;;;;;;;-3.08;72.27;98147.56;122082;1144;63917;-91
2021/01/01 00:35:10;;;;;;;176.70;67.77;;;;;;;-3.14;71.92;98143.38;122158;1144;65156;-91
2021/01/01 00:37:37;;;;;;;163.03;63.13;;;;;;;-3.16;72.30;98149.57;122179;1144;63801;-90
2021/01/01 00:40:06;;;;;;;164.77;65.33;;;;;;;-3.19;72.51;98145.28;121686;1144;64999;-90
2021/01/01 00:42:36;;;;;;;163.70;62.90;;;;;;;-3.20;72.17;98148.80;122049;1144;65006;-90
2021/01/01 00:45:05;;;;;;;165.90;65.00;;;;;;;-3.22;72.71;98145.39;122009;1143;64951;-90
2021/01/01 00:47:31;;;;;;;164.05;67.05;;;;;;;-3.26;72.48;98141.16;122039;1144;65085;-90
2021/01/01 00:49:58;;;;;;;168.43;68.20;;;;;;;-3.22;72.99;98142.78;121916;1144;63890;-91
2021/01/01 00:52:25;;;;;;;166.73;68.67;;;;;;;-3.23;72.54;98138.47;121894;1143;64326;-89
2021/01/01 00:54:51;;;;;;;169.00;68.33;;;;;;;-3.23;72.70;98151.52;121767;1144;65002;-90
2021/01/01 00:57:18;;;;;;;162.50;66.07;;;;;;;-3.30;71.92;98143.03;121859;1145;64999;-90
2021/01/01 00:59:44;;;;;;;173.10;69.10;;;;;;;-3.37;72.24;98153.68;121880;1144;64977;-89
2021/01/01 01:02:10;;;;;;;167.95;65.60;;;;;;;-3.42;72.59;98143.41;121722;1143;65095;-90
2021/01/01 01:04:37;;;;;;;143.70;59.60;;;;;;;-3.44;72.61;98150.41;121646;1144;65061;-89
2021/01/01 01:07:03;;;;;;;156.37;60.17;;;;;;;-3.55;72.71;98152.51;121564;1144;64999;-88
2021/01/01 01:09:30;;;;;;;158.30;61.90;;;;;;;-3.61;72.07;98155.30;121522;1144;65085;-88
2021/01/01 01:11:56;;;;;;;158.67;59.57;;;;;;;-3.66;72.28;98154.58;121412;1144;65207;-90
2021/01/01 01:14:22;;;;;;;138.82;56.23;;;;;;;-3.70;72.74;98147.73;121263;1144;64992;-90
2021/01/01 01:16:49;;;;;;;134.67;52.43;;;;;;;-3.69;72.96;98145.09;121380;1144;65044;-89
2021/01/01 01:19:15;;;;;;;122.23;52.20;;;;;;;-3.71;72.44;98148.63;121047;1144;65069;-90
2021/01/01 01:21:42;;;;;;;122.53;47.67;;;;;;;-3.75;71.96;98150.49;121203;1144;65094;-90
2021/01/01 01:24:08;;;;;;;121.60;51.83;;;;;;;-3.80;72.92;98147.16;120973;1142;65066;-89
2021/01/01 01:26:34;;;;;;;114.97;47.73;;;;;;;-3.85;72.93;98147.28;121106;1142;65079;-89
2021/01/01 01:29:01;;;;;;;107.70;46.37;;;;;;;-3.91;72.62;98154.42;121265;1145;65095;-89
2021/01/01 01:31:27;;;;;;;102.25;42.73;;;;;;;-3.99;72.05;98156.41;121218;1144;65502;-89
2021/01/01 01:33:54;;;;;;;103.80;45.40;;;;;;;-4.02;72.24;98149.50;121088;1143;65030;-89
2021/01/01 01:36:20;;;;;;;99.97;43.47;;;;;;;-4.06;72.57;98147.05;121043;1143;65073;-89
2021/01/01 01:38:47;;;;;;;110.23;43.07;;;;;;;-4.09;72.18;98145.36;120982;1144;65249;-89
2021/01/01 01:41:13;;;;;;;106.77;43.63;;;;;;;-4.06;72.23;98150.52;121063;1143;65111;-89
2021/01/01 01:43:40;;;;;;;102.53;41.43;;;;;;;-4.05;72.20;98151.36;121071;1143;65034;-89
2021/01/01 01:46:06;;;;;;;89.63;37.47;;;;;;;-4.01;72.57;98150.36;120938;1143;65043;-89
2021/01/01 01:48:36;;;;;;;92.80;36.60;;;;;;;-3.96;73.06;98151.94;120995;1144;65089;-90
2021/01/01 01:51:04;;;;;;;90.37;37.03;;;;;;;-3.88;73.07;98154.33;121066;1144;64979;-89
2021/01/01 01:53:34;;;;;;;88.53;37.50;;;;;;;-3.84;73.01;98153.34;121030;1144;65011;-91
2021/01/01 01:56:01;;;;;;;83.93;35.37;;;;;;;-3.81;72.49;98159.34;121148;1143;64996;-90
2021/01/01 01:58:27;;;;;;;86.80;35.57;;;;;;;-3.78;72.75;98154.93;121129;1144;63917;-90
2021/01/01 02:00:59;;;;;;;71.70;32.65;;;;;;;-3.79;72.50;98154.08;121153;1144;63917;-89
2021/01/01 02:03:27;;;;;;;90.47;36.47;;;;;;;-3.83;72.77;98145.47;121215;1143;65066;-89
2021/01/01 02:05:55;;;;;;;85.97;35.20;;;;;;;-3.89;72.15;98147.41;121231;1143;65060;-90
2021/01/01 02:08:22;;;;;;;122.00;43.40;;;;;;;-3.93;72.66;98151.88;121185;1143;65035;-90
2021/01/01 02:10:52;;;;;;;151.83;51.47;;;;;;;-4.00;72.58;98155.55;121068;1143;65014;-90
2021/01/01 02:13:20;;;;;;;99.90;39.50;;;;;;;-4.06;72.50;98160.94;121148;1144;65152;-90
2021/01/01 02:15:48;;;;;;;133.33;47.70;;;;;;;-4.12;72.57;98155.89;121235;1143;65099;-90
2021/01/01 02:18:34;;;;;;;146.07;51.30;;;;;;;-4.19;72.08;98160.42;121124;1144;65168;-89
2021/01/01 02:21:02;;;;;;;132.00;43.10;;;;;;;-4.20;72.76;98150.02;120752;1144;65006;-90
2021/01/01 02:23:28;;;;;;;123.43;45.47;;;;;;;-4.23;72.90;98147.50;121164;1144;65156;-90
2021/01/01 02:25:56;;;;;;;166.37;54.63;;;;;;;-4.25;72.55;98146.70;120835;1144;65126;-90
2021/01/01 02:28:23;;;;;;;118.47;43.20;;;;;;;-4.25;72.61;98144.09;121122;1144;65012;-90
2021/01/01 02:30:51;;;;;;;100.03;38.03;;;;;;;-4.23;72.94;98137.93;121475;1144;63911;-90
2021/01/01 02:33:20;;;;;;;127.13;46.20;;;;;;;-4.25;73.11;98136.27;121344;1144;65070;-90
2021/01/01 02:35:47;;;;;;;119.20;44.03;;;;;;;-4.27;73.01;98132.83;120987;1144;65152;-89
2021/01/01 02:38:13;;;;;;;96.47;39.63;;;;;;;-4.27;72.62;98144.11;121172;1144;65092;-90
2021/01/01 02:40:40;;;;;;;217.90;73.90;;;;;;;-4.36;72.44;98147.83;121033;1143;65051;-89
2021/01/01 02:43:06;;;;;;;117.05;44.93;;;;;;;-4.48;72.75;98148.16;120942;1144;65149;-89
2021/01/01 02:45:33;;;;;;;156.00;51.80;;;;;;;-4.50;73.23;98139.53;120939;1144;65282;-89
2021/01/01 02:48:14;;;;;;;187.60;65.10;;;;;;;-4.48;73.27;98139.48;120932;1144;65014;-89
2021/01/01 02:50:40;;;;;;;181.30;59.73;;;;;;;-4.49;73.24;98136.03;120899;1144;65715;-90
2021/01/01 02:53:07;;;;;;;149.17;54.83;;;;;;;-4.49;73.04;98140.39;120878;1144;65025;-90
2021/01/01 02:55:35;;;;;;;122.10;47.07;;;;;;;-4.53;73.22;98138.75;121059;1144;65060;-90
2021/01/01 02:58:02;;;;;;;112.67;44.07;;;;;;;-4.51;73.78;98136.98;121117;1143;65082;-90
2021/01/01 03:00:31;;;;;;;120.30;45.60;;;;;;;-4.46;73.19;98138.54;120962;1144;65073;-90
2021/01/01 03:02:57;;;;;;;109.83;43.33;;;;;;;-4.47;72.78;98139.44;120764;1144;65166;-90
2021/01/01 03:05:24;;;;;;;94.40;38.70;;;;;;;-4.41;73.02;98138.42;121123;1145;65023;-90
2021/01/01 03:07:51;;;;;;;96.47;40.03;;;;;;;-4.38;73.13;98143.57;120987;1144;65024;-90
2021/01/01 03:10:18;;;;;;;112.53;44.90;;;;;;;-4.44;73.19;98138.52;120755;1143;65002;-91
2021/01/01 03:12:44;;;;;;;106.40;43.50;;;;;;;-4.54;73.25;98139.65;121016;1144;65193;-91
2021/01/01 03:15:11;;;;;;;129.03;48.97;;;;;;;-4.55;73.10;98140.55;120937;1144;65255;-91
2021/01/01 03:17:37;;;;;;;140.95;49.80;;;;;;;-4.53;73.82;98142.20;121004;1143;65071;-91
2021/01/01 03:20:05;;;;;;;116.53;43.53;;;;;;;-4.51;73.08;98143.05;120998;1144;64996;-91
2021/01/01 03:22:32;;;;;;;120.90;43.43;;;;;;;-4.45;73.32;98144.64;120907;1144;65060;-90
2021/01/01 03:24:58;;;;;;;133.87;51.83;;;;;;;-4.45;73.20;98142.03;121089;1144;65088;-90
2021/01/01 03:27:24;;;;;;;142.73;53.87;;;;;;;-4.41;73.51;98147.09;120923;1144;65234;-91
2021/01/01 03:29:51;;;;;;;122.23;46.83;;;;;;;-4.34;74.06;98139.97;121057;1144;65085;-91
2021/01/01 03:32:17;;;;;;;128.33;47.40;;;;;;;-4.28;73.22;98137.20;120871;1144;65075;-91
2021/01/01 03:34:44;;;;;;;142.83;54.97;;;;;;;-4.27;73.23;98136.30;121101;1144;65076;-91
2021/01/01 03:37:10;;;;;;;153.20;52.20;;;;;;;-4.27;73.28;98141.50;121089;1144;64957;-89
2021/01/01 03:39:36;;;;;;;133.40;51.40;;;;;;;-4.29;73.35;98138.09;121174;1143;65116;-91
2021/01/01 03:42:03;;;;;;;129.87;50.03;;;;;;;-4.26;73.85;98127.60;120996;1144;65188;-91
2021/01/01 03:44:29;;;;;;;116.80;45.37;;;;;;;-4.19;73.71;98126.53;121261;1144;65202;-91
2021/01/01 03:46:56;;;;;;;155.60;52.60;;;;;;;-4.20;73.42;98134.37;121111;1144;65070;-92
2021/01/01 03:49:22;;;;;;;173.20;62.27;;;;;;;-4.29;73.14;98130.28;121046;1144;65137;-91
2021/01/01 03:51:48;;;;;;;169.10;57.30;;;;;;;-4.33;73.63;98131.24;121067;1144;65092;-91
2021/01/01 03:54:15;;;;;;;246.37;71.00;;;;;;;-4.32;73.14;98127.77;121224;1145;65172;-92
2021/01/01 03:56:41;;;;;;;142.15;49.45;;;;;;;-4.30;73.49;98131.18;121286;1144;65063;-91
2021/01/01 03:59:07;;;;;;;128.60;46.03;;;;;;;-4.26;73.13;98118.89;121358;1144;65060;-91
2021/01/01 04:01:34;;;;;;;138.20;49.60;;;;;;;-4.28;73.15;98128.52;121177;1144;65028;-92
2021/01/01 04:04:00;;;;;;;120.00;47.47;;;;;;;-4.26;73.13;98130.20;121057;1143;65182;-91
2021/01/01 04:06:26;;;;;;;139.85;48.50;;;;;;;-4.18;73.79;98120.41;121290;1144;65085;-92
2021/01/01 04:08:53;;;;;;;116.60;45.67;;;;;;;-4.15;73.41;98120.31;121508;1143;65031;-91
2021/01/01 04:11:19;;;;;;;120.00;42.43;;;;;;;-4.17;73.42;98122.12;121419;1144;63855;-92
2021/01/01 04:13:45;;;;;;;127.27;47.87;;;;;;;-4.25;73.33;98113.66;121531;1144;65449;-92
2021/01/01 04:16:12;;;;;;;129.10;48.47;;;;;;;-4.26;73.29;98127.60;121353;1143;63930;-91
2021/01/01 04:18:38;;;;;;;112.00;40.63;;;;;;;-4.27;73.40;98115.44;121450;1143;65021;-90
2021/01/01 04:21:08;;;;;;;122.70;46.77;;;;;;;-4.38;73.30;98130.55;121290;1144;65184;-91
2021/01/01 04:23:35;;;;;;;125.00;48.60;;;;;;;-4.49;73.35;98136.03;121424;1144;65082;-90
2021/01/01 04:26:03;;;;;;;148.17;53.83;;;;;;;-4.56;73.00;98131.88;121487;1144;65087;-91
2021/01/01 04:28:29;;;;;;;112.57;43.67;;;;;;;-4.57;73.24;98124.11;121461;1143;65100;-92
2021/01/01 04:30:56;;;;;;;124.43;46.53;;;;;;;-4.56;73.29;98128.42;121396;1144;65068;-92
2021/01/01 04:33:22;;;;;;;96.97;38.30;;;;;;;-4.55;73.30;98120.55;121352;1143;63925;-91
2021/01/01 04:35:49;;;;;;;95.30;38.57;;;;;;;-4.55;73.04;98115.34;121314;1144;65107;-92
2021/01/01 04:38:15;;;;;;;108.73;41.93;;;;;;;-4.60;73.06;98118.97;121166;1143;65012;-91
2021/01/01 04:40:41;;;;;;;92.60;37.60;;;;;;;-4.63;73.75;98115.55;121228;1144;65082;-91
2021/01/01 04:43:08;;;;;;;92.30;37.47;;;;;;;-4.60;73.89;98116.36;120976;1144;65012;-90
2021/01/01 04:45:35;;;;;;;101.30;38.20;;;;;;;-4.60;73.58;98108.55;121065;1143;63747;-91
2021/01/01 04:48:02;;;;;;;118.20;41.43;;;;;;;-4.58;73.51;98112.84;121026;1144;65100;-91
2021/01/01 04:50:28;;;;;;;100.67;39.30;;;;;;;-4.56;73.89;98113.64;120908;1144;65223;-91
2021/01/01 04:52:57;;;;;;;102.93;39.93;;;;;;;-4.54;73.91;98110.98;121128;1144;65305;-91
2021/01/01 04:55:26;;;;;;;106.23;42.67;;;;;;;-4.54;73.67;98116.20;120796;1143;65130;-92
2021/01/01 04:57:53;;;;;;;103.60;39.50;;;;;;;-4.51;73.81;98111.77;121025;1144;64986;-91
2021/01/01 05:00:21;;;;;;;101.07;39.93;;;;;;;-4.49;74.11;98106.52;120986;1144;65123;-92
2021/01/01 05:02:47;;;;;;;94.37;38.63;;;;;;;-4.46;73.94;98103.81;121040;1145;65075;-92
2021/01/01 05:05:13;;;;;;;109.37;42.20;;;;;;;-4.46;73.94;98104.66;121062;1144;65159;-92
2021/01/01 05:07:40;;;;;;;95.13;38.83;;;;;;;-4.44;73.44;98110.71;121183;1144;65127;-92
2021/01/01 05:10:08;;;;;;;81.15;32.75;;;;;;;-4.50;73.70;98118.69;120871;1144;65082;-92
2021/01/01 05:12:35;;;;;;;96.53;39.03;;;;;;;-4.55;73.46;98114.49;121162;1144;65124;-91
2021/01/01 05:15:01;;;;;;;100.05;40.95;;;;;;;-4.55;73.88;98117.95;121205;1144;65287;-91
2021/01/01 05:17:35;;;;;;;102.47;40.00;;;;;;;-4.51;74.23;98122.20;121147;1144;65133;-91
2021/01/01 05:20:06;;;;;;;115.97;45.63;;;;;;;-4.54;73.61;98117.05;120902;1144;65493;-91
2021/01/01 05:22:34;;;;;;;94.10;37.07;;;;;;;-4.57;73.77;98116.30;120310;1143;65082;-92
2021/01/01 05:25:16;;;;;;;107.93;44.07;;;;;;;-4.60;73.87;98116.36;120331;1144;65248;-91
2021/01/01 05:27:46;;;;;;;97.43;38.10;;;;;;;-4.59;74.07;98115.46;120742;1144;65357;-91
2021/01/01 05:30:16;;;;;;;86.50;36.40;;;;;;;-4.58;74.20;98120.66;120481;1144;65182;-91
2021/01/01 05:32:51;;;;;;;87.87;37.20;;;;;;;-4.59;73.80;98116.31;120865;1144;65174;-91
2021/01/01 05:35:44;;;;;;;103.10;41.20;;;;;;;-4.59;74.07;98128.48;120962;1143;65053;-91
2021/01/01 05:38:16;;;;;;;105.43;42.53;;;;;;;-4.61;73.80;98125.93;120850;1143;65058;-91
2021/01/01 05:40:47;;;;;;;105.83;42.83;;;;;;;-4.62;74.39;98124.22;120827;1143;65161;-91
2021/01/01 05:43:20;;;;;;;116.23;42.13;;;;;;;-4.51;74.55;98126.55;120919;1144;65156;-89
2021/01/01 05:45:47;;;;;;;109.13;43.37;;;;;;;-4.55;74.37;98132.73;120887;1144;65104;-92
2021/01/01 05:48:16;;;;;;;103.13;41.97;;;;;;;-4.64;73.51;98137.30;120843;1144;65149;-92
2021/01/01 05:50:45;;;;;;;100.75;40.55;;;;;;;-4.69;74.13;98136.55;120859;1144;65197;-91
2021/01/01 05:53:16;;;;;;;102.85;41.35;;;;;;;-4.70;73.94;98142.66;120893;1143;65121;-91
2021/01/01 05:55:45;;;;;;;86.87;37.20;;;;;;;-4.70;74.29;98131.39;120537;1144;65248;-91
2021/01/01 05:58:22;;;;;;;96.43;38.67;;;;;;;-4.67;74.46;98137.36;120764;1144;65015;-90
2021/01/01 06:00:58;;;;;;;100.73;39.67;;;;;;;-4.62;74.56;98137.25;120679;1144;65051;-92
2021/01/01 06:03:27;;;;;;;87.87;37.67;;;;;;;-4.56;74.53;98134.48;120662;1144;65111;-91
2021/01/01 06:05:55;;;;;;;102.43;38.73;;;;;;;-4.53;74.40;98139.60;120525;1143;65079;-90
2021/01/01 06:08:27;;;;;;;90.03;34.93;;;;;;;-4.50;74.74;98138.69;120779;1143;65094;-90
2021/01/01 06:11:05;;;;;;;90.10;35.83;;;;;;;-4.53;74.29;98143.96;120689;1144;65114;-91
2021/01/01 06:13:34;;;;;;;91.53;37.33;;;;;;;-4.56;74.32;98138.84;120596;1142;64999;-91
2021/01/01 06:16:02;;;;;;;88.20;35.57;;;;;;;-4.56;74.40;98139.70;120352;1143;65086;-91
2021/01/01 06:18:34;;;;;;;84.33;33.83;;;;;;;-4.59;74.43;98147.58;120554;1144;65056;-90
2021/01/01 06:21:00;;;;;;;90.53;35.73;;;;;;;-4.61;74.40;98146.77;120640;1144;63951;-91
2021/01/01 06:23:37;;;;;;;93.60;36.60;;;;;;;-4.60;74.53;98147.63;120603;1142;65094;-91
2021/01/01 06:26:08;;;;;;;88.60;35.37;;;;;;;-4.62;74.42;98151.13;120651;1144;65158;-91
2021/01/01 06:28:37;;;;;;;87.57;35.77;;;;;;;-4.63;74.39;98143.36;120527;1144;64978;-91
2021/01/01 06:31:05;;;;;;;85.07;33.47;;;;;;;-4.56;74.46;98141.45;120335;1144;64994;-91
2021/01/01 06:33:33;;;;;;;90.55;34.20;;;;;;;-4.55;74.91;98153.58;120570;1143;65088;-90
2021/01/01 06:35:59;;;;;;;79.23;33.90;;;;;;;-4.56;74.31;98146.66;120438;1143;65041;-91
2021/01/01 06:38:39;;;;;;;83.73;32.73;;;;;;;-4.59;74.42;98149.33;120520;1144;65174;-93
2021/01/01 06:41:14;;;;;;;78.73;31.17;;;;;;;-4.63;74.18;98156.39;120402;1144;65075;-92
2021/01/01 06:43:52;;;;;;;92.53;36.23;;;;;;;-4.64;74.54;98147.72;120390;1144;65180;-90
2021/01/01 06:46:33;;;;;;;87.43;33.47;;;;;;;-4.62;74.79;98153.73;120376;1143;65088;-91
2021/01/01 06:49:00;;;;;;;77.57;32.37;;;;;;;-4.60;74.42;98151.08;120274;1144;65047;-91
2021/01/01 06:51:29;;;;;;;917.23;386.40;;;;;;;-4.59;74.94;98152.79;120379;1144;65052;-91
2021/01/01 06:54:09;;;;;;;326.73;113.67;;;;;;;-4.62;74.54;98152.88;120300;1142;65277;-90
2021/01/01 06:56:40;;;;;;;132.07;51.30;;;;;;;-4.65;74.27;98160.76;120264;1144;65274;-90
2021/01/01 06:59:08;;;;;;;112.47;42.73;;;;;;;-4.69;74.74;98152.19;120418;1144;65113;-90
2021/01/01 07:01:43;;;;;;;107.55;40.00;;;;;;;-4.66;74.54;98154.70;120324;1144;65090;-91
2021/01/01 07:04:10;;;;;;;115.73;41.77;;;;;;;-4.56;75.08;98157.08;120294;1144;65015;-91
2021/01/01 07:06:39;;;;;;;140.60;51.95;;;;;;;-4.53;74.67;98155.23;120287;1143;65187;-92
2021/01/01 07:09:07;;;;;;;99.45;39.20;;;;;;;-4.50;74.75;98159.53;120338;1143;65014;-91
2021/01/01 07:11:35;;;;;;;100.77;40.33;;;;;;;-4.48;74.68;98163.80;120283;1143;65128;-90
2021/01/01 07:14:07;;;;;;;96.53;39.73;;;;;;;-4.42;74.59;98161.03;120172;1145;65063;-92
2021/01/01 07:16:45;;;;;;;90.03;34.67;;;;;;;-4.30;75.06;98164.21;120232;1144;65069;-91
2021/01/01 07:19:14;;;;;;;92.17;36.83;;;;;;;-4.26;74.93;98166.70;120194;1144;65110;-91
2021/01/01 07:21:41;;;;;;;95.57;38.57;;;;;;;-4.18;74.97;98177.77;120170;1144;65590;-90
2021/01/01 07:24:08;;;;;;;92.90;35.77;;;;;;;-4.12;75.02;98172.39;120610;1144;64983;-91
2021/01/01 07:26:35;;;;;;;97.90;41.55;;;;;;;-3.99;75.12;98154.66;120762;1144;65108;-90
2021/01/01 07:29:03;;;;;;;89.77;36.67;;;;;;;-3.78;74.89;98166.22;120319;1144;65092;-94
2021/01/01 07:31:30;;;;;;;96.30;40.37;;;;;;;-3.68;74.47;98162.45;120341;1143;65086;-90
2021/01/01 07:33:57;;;;;;;87.03;36.53;;;;;;;-3.51;74.40;98158.47;120312;1144;65181;-91
2021/01/01 07:36:24;;;;;;;88.50;36.13;;;;;;;-3.39;75.06;98158.10;120548;1142;65094;-90
2021/01/01 07:38:50;;;;;;;97.43;40.50;;;;;;;-3.23;74.87;98158.50;120398;1144;65142;-91
2021/01/01 07:41:21;;;;;;;127.13;51.93;;;;;;;-3.13;74.86;98160.76;120225;1144;65060;-91
2021/01/01 07:43:51;;;;;;;112.90;51.07;;;;;;;-3.08;74.61;98160.62;120280;1144;65159;-89
2021/01/01 07:46:17;;;;;;;98.17;43.43;;;;;;;-3.08;74.39;98161.47;120296;1144;65120;-92
2021/01/01 07:48:44;;;;;;;129.27;56.43;;;;;;;-3.04;73.93;98165.71;120208;1143;65019;-91
2021/01/01 07:51:11;;;;;;;147.63;65.43;;;;;;;-3.01;74.26;98162.13;120207;1143;65086;-90
2021/01/01 07:53:38;;;;;;;101.10;43.23;;;;;;;-2.96;75.03;98173.30;120242;1144;65209;-91
2021/01/01 07:56:06;;;;;;;108.90;44.67;;;;;;;-2.86;74.62;98160.77;120335;1144;65113;-91
2021/01/01 07:58:34;;;;;;;88.80;40.80;;;;;;;-2.73;74.75;98162.11;120255;1143;63948;-92
2021/01/01 08:01:06;;;;;;;99.60;40.47;;;;;;;-2.56;75.34;98166.75;120300;1144;65102;-91
2021/01/01 08:03:34;;;;;;;84.40;37.33;;;;;;;-2.53;74.84;98162.30;120322;1144;64999;-90
2021/01/01 08:06:01;;;;;;;98.33;42.97;;;;;;;-2.54;75.12;98165.82;120483;1144;65021;-91
2021/01/01 08:08:28;;;;;;;89.03;40.57;;;;;;;-2.46;74.70;98161.17;120290;1143;65063;-91
2021/01/01 08:10:57;;;;;;;90.37;36.00;;;;;;;-2.39;74.94;98164.44;120404;1144;65242;-90
2021/01/01 08:13:28;;;;;;;85.33;35.07;;;;;;;-2.32;74.58;98172.92;120293;1143;65066;-90
2021/01/01 08:16:10;;;;;;;95.47;37.37;;;;;;;-2.21;74.94;98178.64;120338;1143;65063;-91
2021/01/01 08:18:37;;;;;;;78.83;33.53;;;;;;;-2.08;74.96;98176.45;120254;1143;65205;-90
2021/01/01 08:21:05;;;;;;;80.60;35.97;;;;;;;-1.98;74.99;98178.66;120114;1144;65091;-90
2021/01/01 08:23:55;;;;;;;82.87;36.23;;;;;;;-1.85;74.63;98173.84;120284;1144;65136;-89
2021/01/01 08:26:22;;;;;;;86.90;38.25;;;;;;;-1.73;75.08;98175.16;120261;1144;64999;-91
2021/01/01 08:28:53;;;;;;;83.17;36.07;;;;;;;-1.66;74.09;98176.64;120287;1144;65121;-90
2021/01/01 08:31:20;;;;;;;88.90;36.70;;;;;;;-1.65;74.94;98184.46;120274;1143;65098;-90
2021/01/01 08:33:51;;;;;;;79.60;35.40;;;;;;;-1.72;74.66;98189.95;120236;1144;65092;-89
2021/01/01 08:36:18;;;;;;;84.83;35.37;;;;;;;-1.71;74.75;98191.69;119965;1144;65068;-91
2021/01/01 08:38:44;;;;;;;78.27;35.77;;;;;;;-1.63;74.62;98192.25;120471;1144;65057;-91
2021/01/01 08:41:18;;;;;;;86.30;34.80;;;;;;;-1.51;74.94;98183.95;120592;1144;65175;-90
2021/01/01 08:43:46;;;;;;;83.73;34.90;;;;;;;-1.40;74.95;98183.52;120730;1143;65200;-91
2021/01/01 08:46:17;;;;;;;90.20;37.33;;;;;;;-1.32;74.17;98186.72;120703;1145;65885;-89
2021/01/01 08:48:44;;;;;;;92.63;40.00;;;;;;;-1.31;74.16;98188.42;120755;1144;65197;-91
2021/01/01 08:51:10;;;;;;;103.37;43.23;;;;;;;-1.27;74.05;98182.17;120755;1144;64964;-90
2021/01/01 08:53:39;;;;;;;96.30;41.87;;;;;;;-1.19;74.51;98177.48;120850;1143;65018;-90
2021/01/01 08:56:06;;;;;;;98.87;42.07;;;;;;;-1.15;74.86;98180.81;120745;1144;65130;-89
2021/01/01 08:58:32;;;;;;;95.97;41.10;;;;;;;-1.05;74.60;98183.94;120786;1144;65089;-91
2021/01/01 09:01:15;;;;;;;107.87;43.97;;;;;;;-0.93;74.47;98184.31;120790;1144;65034;-90
2021/01/01 09:03:43;;;;;;;109.43;42.70;;;;;;;-0.79;74.08;98185.52;120782;1143;65120;-90
2021/01/01 09:06:17;;;;;;;95.93;41.03;;;;;;;-0.68;74.03;98178.94;121009;1144;65018;-90
2021/01/01 09:08:44;;;;;;;111.10;45.13;;;;;;;-0.63;74.94;98186.63;120835;1144;65571;-89
2021/01/01 09:11:23;;;;;;;102.40;44.37;;;;;;;-0.48;74.87;98199.09;121004;1144;65056;-90
2021/01/01 09:14:02;;;;;;;114.90;44.37;;;;;;;-0.28;74.54;98204.36;120814;1144;65132;-90
2021/01/01 09:16:28;;;;;;;111.80;45.65;;;;;;;-0.14;74.35;98201.15;120870;1144;65021;-91
2021/01/01 09:19:06;;;;;;;97.37;41.43;;;;;;;-0.01;74.27;98202.33;120702;1143;65072;-90
2021/01/01 09:21:32;;;;;;;92.87;39.77;;;;;;;0.11;74.47;98216.70;120844;1143;65097;-90
2021/01/01 09:24:00;;;;;;;101.07;43.67;;;;;;;0.17;74.64;98219.06;120790;1143;65043;-90
2021/01/01 09:26:31;;;;;;;96.77;39.80;;;;;;;0.25;74.77;98211.72;120791;1144;65178;-90
2021/01/01 09:29:07;;;;;;;99.00;40.37;;;;;;;0.39;74.06;98207.63;120744;1144;65084;-90
2021/01/01 09:31:36;;;;;;;86.37;37.80;;;;;;;0.56;74.24;98205.08;120818;1143;65107;-89
2021/01/01 09:34:05;;;;;;;84.70;38.20;;;;;;;0.68;74.03;98204.52;120894;1143;65072;-89
2021/01/01 09:36:40;;;;;;;92.17;39.50;;;;;;;0.79;74.57;98207.52;120753;1144;65078;-89
2021/01/01 09:39:08;;;;;;;81.97;36.38;;;;;;;1.03;74.03;98207.30;120521;1144;65252;-90
2021/01/01 09:41:39;;;;;;;81.73;36.73;;;;;;;1.20;74.08;98211.74;120736;1144;64973;-89
2021/01/01 09:44:06;;;;;;;83.07;37.33;;;;;;;1.26;74.16;98206.19;120871;1144;64980;-88
2021/01/01 09:46:32;;;;;;;74.33;35.07;;;;;;;1.41;73.70;98204.63;120634;1144;65088;-89
2021/01/01 09:48:58;;;;;;;84.73;37.43;;;;;;;1.45;73.93;98201.75;120328;1144;65021;-91
2021/01/01 09:51:25;;;;;;;88.27;39.50;;;;;;;1.48;74.06;98212.13;120531;1144;65179;-89
2021/01/01 09:53:53;;;;;;;94.93;39.73;;;;;;;1.50;73.82;98212.05;120199;1144;65184;-88
2021/01/01 09:56:34;;;;;;;92.60;40.03;;;;;;;1.70;74.29;98213.70;120323;1144;65088;-90
2021/01/01 09:59:01;;;;;;;89.10;38.37;;;;;;;1.87;74.05;98208.45;120267;1143;65003;-89
2021/01/01 10:01:31;;;;;;;85.83;41.23;;;;;;;1.95;73.51;98213.33;120182;1144;65095;-90
2021/01/01 10:03:58;;;;;;;95.40;41.00;;;;;;;2.08;73.87;98217.88;119861;1144;65575;-89
2021/01/01 10:06:26;;;;;;;82.60;39.23;;;;;;;2.20;73.54;98224.31;120021;1142;65198;-89
2021/01/01 10:08:52;;;;;;;90.87;40.77;;;;;;;2.36;73.73;98219.97;120056;1144;65133;-88
2021/01/01 10:11:19;;;;;;;101.33;46.10;;;;;;;2.48;73.92;98210.53;120135;1144;65118;-89
2021/01/01 10:13:45;;;;;;;100.03;44.13;;;;;;;2.58;74.27;98209.13;120089;1144;65156;-87
2021/01/01 10:16:12;;;;;;;113.65;49.98;;;;;;;2.68;73.71;98209.50;119904;1143;65072;-87
2021/01/01 10:18:40;;;;;;;142.65;60.90;;;;;;;2.68;73.94;98199.80;119981;1143;65089;-91
2021/01/01 10:21:10;;;;;;;146.53;61.80;;;;;;;2.70;73.83;98202.35;120020;1143;65117;-87
2021/01/01 10:23:37;;;;;;;129.63;58.57;;;;;;;2.76;73.88;98201.17;120107;1144;65193;-87
2021/01/01 10:26:04;;;;;;;105.03;49.77;;;;;;;2.83;73.77;98206.03;120888;1143;64983;-86
2021/01/01 10:28:30;;;;;;;111.50;50.35;;;;;;;2.90;73.63;98199.48;120553;1143;65150;-90
2021/01/01 10:30:59;;;;;;;113.27;48.67;;;;;;;2.92;73.70;98204.66;119875;1144;65088;-91
2021/01/01 10:33:28;;;;;;;98.77;47.63;;;;;;;3.04;74.31;98200.51;119917;1144;65191;-86
2021/01/01 10:35:55;;;;;;;99.07;45.67;;;;;;;3.10;74.38;98195.74;119944;1144;65191;-89
2021/01/01 10:38:21;;;;;;;103.55;48.25;;;;;;;3.19;73.73;98189.97;119946;1143;65008;-90
2021/01/01 10:40:48;;;;;;;99.43;46.53;;;;;;;3.23;73.63;98194.12;119906;1143;65252;-90
2021/01/01 10:43:15;;;;;;;96.03;46.57;;;;;;;3.31;73.86;98196.35;120052;1143;65066;-87
2021/01/01 10:45:41;;;;;;;113.40;48.70;;;;;;;3.42;74.00;98185.16;120065;1143;65122;-88
2021/01/01 10:48:08;;;;;;;109.47;51.13;;;;;;;3.53;74.29;98185.41;119937;1144;65171;-89
2021/01/01 10:50:34;;;;;;;105.07;49.40;;;;;;;3.61;74.23;98184.96;119960;1144;65070;-90
2021/01/01 10:53:01;;;;;;;100.40;44.60;;;;;;;3.65;73.68;98184.70;120000;1143;65092;-88
2021/01/01 10:55:28;;;;;;;99.93;43.77;;;;;;;3.65;74.06;98184.70;120044;1143;65069;-86
2021/01/01 10:57:56;;;;;;;88.00;40.10;;;;;;;3.71;74.06;98186.14;120025;1144;65060;-92
2021/01/01 11:00:23;;;;;;;89.33;40.53;;;;;;;3.83;73.69;98184.58;120126;1144;65137;-90
2021/01/01 11:02:50;;;;;;;95.37;44.23;;;;;;;3.90;74.19;98181.48;119995;1143;65519;-87
2021/01/01 11:05:16;;;;;;;104.77;46.40;;;;;;;4.01;74.03;98176.42;119846;1144;65171;-88
2021/01/01 11:07:43;;;;;;;106.90;48.15;;;;;;;4.10;73.75;98182.94;119953;1143;65050;-85
2021/01/01 11:10:10;;;;;;;98.00;46.40;;;;;;;4.14;73.12;98171.25;119929;1144;65092;-89
2021/01/01 11:12:38;;;;;;;103.20;46.63;;;;;;;4.12;73.91;98162.55;120031;1143;65150;-90